createdAt,value
2023-03-04T00:08:09.175Z,77.12
2023-03-04T00:18:30.637Z,76.97
2023-03-04T00:28:52.033Z,78.01
2023-03-04T00:39:13.686Z,77.17
2023-03-04T00:49:35.083Z,77.64
2023-03-04T00:59:56.457Z,77.51
2023-03-04T01:10:17.938Z,77.08
2023-03-04T01:20:39.382Z,77.36
2023-03-04T01:31:00.806Z,77.43
2023-03-04T01:41:26.214Z,76.63
2023-03-04T01:51:54.630Z,76.55
2023-03-04T02:02:16.023Z,77.00
2023-03-04T02:12:37.477Z,78.14
2023-03-04T02:22:58.914Z,77.74
2023-03-04T02:33:20.373Z,77.92
2023-03-04T02:43:41.786Z,78.05
2023-03-04T02:54:03.625Z,77.74
2023-03-04T03:04:25.723Z,78.33
2023-03-04T03:14:47.070Z,78.54
2023-03-04T03:25:09.307Z,78.43
2023-03-04T03:35:30.758Z,78.00
2023-03-04T03:45:52.262Z,78.62
2023-03-04T03:56:13.676Z,79.24
2023-03-04T04:06:35.126Z,78.96
2023-03-04T04:16:56.523Z,80.47
2023-03-04T04:27:17.941Z,80.96
2023-03-04T04:37:39.283Z,81.12
2023-03-04T04:48:03.852Z,81.74
2023-03-04T04:58:25.229Z,83.11
2023-03-04T05:08:46.678Z,83.90
2023-03-04T05:19:08.216Z,86.67
2023-03-04T05:29:29.568Z,88.76
2023-03-04T05:39:50.911Z,90.40
2023-03-04T05:50:12.328Z,91.27
2023-03-04T06:00:33.887Z,91.46
2023-03-04T06:10:56.408Z,92.29
2023-03-04T06:21:17.791Z,92.36
2023-03-04T06:31:41.721Z,91.81
2023-03-04T06:42:03.163Z,91.77
2023-03-04T06:52:24.655Z,90.47
2023-03-04T07:02:46.058Z,90.05
2023-03-04T07:13:07.454Z,88.38
2023-03-04T07:23:28.821Z,87.64
2023-03-04T07:33:50.862Z,86.57
2023-03-04T07:44:13.437Z,85.43
2023-03-04T07:54:34.877Z,84.80
2023-03-04T08:04:56.247Z,85.40
2023-03-04T08:15:17.689Z,84.25
2023-03-04T08:25:40.370Z,82.70
2023-03-04T08:36:01.768Z,81.02
2023-03-04T08:46:23.230Z,80.10
2023-03-04T08:56:44.651Z,80.28
2023-03-04T09:07:06.116Z,79.69
2023-03-04T09:17:27.504Z,82.06
2023-03-04T09:27:49.072Z,82.96
2023-03-04T09:38:12.815Z,84.36
2023-03-04T09:48:39.708Z,81.57
2023-03-04T09:59:36.755Z,78.33
2023-03-04T10:10:07.180Z,79.36
2023-03-04T10:20:32.892Z,79.87
2023-03-04T10:31:23.703Z,79.99
2023-03-04T10:41:46.276Z,78.85
2023-03-04T10:52:27.221Z,77.92
2023-03-04T11:02:49.279Z,79.43
2023-03-04T11:13:18.216Z,83.89
2023-03-04T11:23:43.209Z,80.95
2023-03-04T11:34:04.552Z,80.61
2023-03-04T11:44:25.921Z,80.35
2023-03-04T11:55:06.430Z,77.98
2023-03-04T12:05:35.083Z,77.28
2023-03-04T12:16:02.519Z,76.31
2023-03-04T12:26:27.004Z,78.33
2023-03-04T12:37:07.902Z,76.50
2023-03-04T12:47:52.714Z,73.58
2023-03-04T12:58:22.765Z,72.55
2023-03-04T13:09:02.550Z,73.74
2023-03-04T13:19:42.844Z,75.38
2023-03-04T13:30:24.262Z,73.13
2023-03-04T13:41:05.834Z,69.56
2023-03-04T13:51:47.453Z,70.52
2023-03-04T14:12:50.035Z,71.52
2023-03-04T14:23:26.676Z,73.14
2023-03-04T14:33:54.245Z,77.49
2023-03-04T14:44:15.585Z,77.54
2023-03-04T14:54:36.982Z,76.64
2023-03-04T15:05:16.185Z,71.72
2023-03-04T15:15:39.888Z,71.75
2023-03-04T15:26:02.702Z,71.91
2023-03-04T15:36:24.349Z,71.01
2023-03-04T15:46:45.715Z,71.82
2023-03-04T15:57:09.136Z,70.71
2023-03-04T16:07:30.728Z,75.26
2023-03-04T16:17:52.304Z,78.00
2023-03-04T16:28:14.009Z,77.44
2023-03-04T16:38:35.407Z,77.00
2023-03-04T16:48:56.782Z,79.85
2023-03-04T16:59:18.174Z,78.81
2023-03-04T17:09:39.680Z,79.27
2023-03-04T17:20:10.032Z,80.20
2023-03-04T17:30:31.475Z,79.44
2023-03-04T17:40:52.998Z,81.16
2023-03-04T17:51:14.860Z,81.89
2023-03-04T18:01:36.269Z,81.84
2023-03-04T18:11:57.691Z,82.48
2023-03-04T18:22:19.110Z,80.97
2023-03-04T18:32:51.726Z,80.89
2023-03-04T18:43:13.740Z,80.74
2023-03-04T18:53:35.283Z,80.44
2023-03-04T19:03:59.089Z,79.96
2023-03-04T19:14:20.527Z,79.84
2023-03-04T19:24:41.939Z,81.21
2023-03-04T19:35:03.400Z,80.33
2023-03-04T19:45:25.494Z,80.43
2023-03-04T19:55:49.060Z,80.22
2023-03-04T20:06:10.420Z,80.54
2023-03-04T20:16:32.320Z,81.63
2023-03-04T20:26:53.786Z,81.07
2023-03-04T20:37:15.177Z,81.24
2023-03-04T20:47:39.496Z,80.75
2023-03-04T20:58:01.006Z,81.50
2023-03-04T21:08:22.413Z,80.87
2023-03-04T21:18:44.305Z,81.91
2023-03-04T21:29:05.762Z,81.77
2023-03-04T21:39:27.239Z,82.23
2023-03-04T21:49:48.831Z,81.64
2023-03-04T22:00:10.665Z,80.82
2023-03-04T22:10:32.035Z,81.99
2023-03-04T22:20:59.160Z,81.18
2023-03-04T22:31:29.671Z,81.71
2023-03-04T22:41:51.044Z,80.98
2023-03-04T22:52:12.401Z,81.48
2023-03-04T23:02:33.833Z,81.37
2023-03-04T23:12:55.218Z,81.98
2023-03-04T23:23:16.595Z,82.63
2023-03-04T23:33:39.490Z,81.37
2023-03-04T23:44:01.442Z,83.29
2023-03-04T23:54:22.827Z,84.08
